Time;durP1;ratioP1;P1;durP2;ratioP2;P2;SDS_P1;SDS_P2;PMS_P1;PMS_P2;Temp;Humidity;BMP_temperature;BMP_pressure;BME280_temperature;BME280_humidity;BME280_pressure;Samples;Min_cycle;Max_cycle;Signal;HPM_P1;HPM_P2
2024/01/11 00:00:31;;;;;;;29.40;11.37;;;;;;;-5.64;100.00;103468.31;5039362;28;20040;-74
2024/01/11 00:03:18;;;;;;;29.67;11.73;;;;;;;-5.66;100.00;103456.97;5042838;28;20360;-74
2024/01/11 00:06:04;;;;;;;29.00;11.90;;;;;;;-5.68;100.00;103461.13;5016600;28;20053;-74
2024/01/11 00:08:50;;;;;;;29.67;11.57;;;;;;;-5.69;100.00;103463.63;5033970;28;20051;-73
2024/01/11 00:11:35;;;;;;;29.50;12.10;;;;;;;-5.71;100.00;103460.97;5037249;28;20113;-74
2024/01/11 00:14:21;;;;;;;29.50;12.50;;;;;;;-5.70;100.00;103469.56;5030880;28;20051;-73
2024/01/11 00:17:07;;;;;;;32.17;12.73;;;;;;;-5.71;100.00;103471.28;5043650;28;20175;-74
2024/01/11 00:19:53;;;;;;;30.00;11.67;;;;;;;-5.72;100.00;103466.91;5044022;28;20056;-74
2024/01/11 00:22:38;;;;;;;29.17;11.53;;;;;;;-5.70;100.00;103467.00;5044223;28;20398;-74
2024/01/11 00:25:24;;;;;;;27.57;12.67;;;;;;;-5.72;100.00;103464.34;5026803;28;20048;-74
2024/01/11 00:28:10;;;;;;;27.73;12.40;;;;;;;-5.72;100.00;103461.75;5029693;28;20057;-74
2024/01/11 00:30:56;;;;;;;23.33;11.57;;;;;;;-5.71;100.00;103468.69;5030598;28;20471;-74
2024/01/11 00:33:41;;;;;;;26.57;12.10;;;;;;;-5.71;100.00;103460.97;5043622;28;20501;-73
2024/01/11 00:36:28;;;;;;;31.27;12.47;;;;;;;-5.70;100.00;103462.75;5033461;28;20154;-74
2024/01/11 00:39:14;;;;;;;30.30;12.40;;;;;;;-5.73;100.00;103460.84;5028090;28;20044;-74
2024/01/11 00:41:59;;;;;;;33.43;12.93;;;;;;;-5.73;100.00;103462.53;5024530;28;20055;-74
2024/01/11 00:44:45;;;;;;;28.70;12.07;;;;;;;-5.73;100.00;103462.53;5021820;28;20040;-74
2024/01/11 00:47:31;;;;;;;28.63;11.67;;;;;;;-5.73;100.00;103465.09;5024777;28;20055;-74
2024/01/11 00:50:16;;;;;;;30.67;12.20;;;;;;;-5.70;100.00;103464.41;5038477;28;20036;-74
2024/01/11 00:53:03;;;;;;;31.40;12.77;;;;;;;-5.70;100.00;103464.41;5031080;28;20517;-74
2024/01/11 00:55:48;;;;;;;32.10;13.13;;;;;;;-5.72;100.00;103461.75;5021971;28;20119;-74
2024/01/11 00:58:34;;;;;;;34.77;13.20;;;;;;;-5.72;100.00;103461.75;5011630;28;20053;-73
2024/01/11 01:01:20;;;;;;;30.73;13.27;;;;;;;-5.73;100.00;103457.38;5041156;28;20123;-74
2024/01/11 01:04:06;;;;;;;32.87;12.63;;;;;;;-5.73;100.00;103462.53;5044181;28;20052;-74
2024/01/11 01:06:51;;;;;;;31.63;12.77;;;;;;;-5.72;100.00;103469.50;5046893;28;20060;-73
2024/01/11 01:09:37;;;;;;;32.47;11.83;;;;;;;-5.73;100.00;103463.44;5006366;28;20057;-74
2024/01/11 01:12:24;;;;;;;30.93;13.17;;;;;;;-5.73;100.00;103471.19;5004378;28;20073;-74
2024/01/11 01:15:10;;;;;;;33.93;12.57;;;;;;;-5.70;100.00;103467.00;5003252;28;20037;-75
2024/01/11 01:17:56;;;;;;;36.37;13.67;;;;;;;-5.69;100.00;103464.53;5007187;28;20041;-74
2024/01/11 01:20:44;;;;;;;36.83;13.90;;;;;;;-5.68;100.00;103468.00;5003047;28;20065;-74
2024/01/11 01:23:30;;;;;;;35.67;13.63;;;;;;;-5.69;100.00;103461.94;5006607;28;20061;-74
2024/01/11 01:26:16;;;;;;;33.53;13.50;;;;;;;-5.75;100.00;103458.97;5010536;28;20163;-74
2024/01/11 01:29:02;;;;;;;31.33;12.97;;;;;;;-5.86;100.00;103464.34;4995607;28;20049;-74
2024/01/11 01:31:47;;;;;;;33.30;13.07;;;;;;;-5.94;100.00;103462.94;5007597;28;20545;-74
2024/01/11 01:34:33;;;;;;;32.93;12.83;;;;;;;-5.99;100.00;103464.34;5007884;28;20493;-74
2024/01/11 01:37:19;;;;;;;32.67;13.00;;;;;;;-6.03;100.00;103463.28;5008082;28;20567;-74
2024/01/11 01:40:07;;;;;;;34.30;12.77;;;;;;;-6.04;100.00;103466.63;4991262;28;20113;-74
2024/01/11 01:42:58;;;;;;;28.30;11.97;;;;;;;-6.02;100.00;103469.31;5005020;28;20057;-74
2024/01/11 01:45:43;;;;;;;34.57;13.47;;;;;;;-5.98;100.00;103466.13;5000427;28;20516;-74
2024/01/11 01:48:29;;;;;;;29.50;12.97;;;;;;;-5.95;100.00;103463.72;5003764;28;20052;-74
2024/01/11 01:51:15;;;;;;;32.93;12.40;;;;;;;-5.95;100.00;103457.69;5008326;28;20064;-74
2024/01/11 01:54:03;;;;;;;42.93;14.63;;;;;;;-5.92;100.00;103466.53;4991265;28;20354;-74
2024/01/11 01:56:49;;;;;;;36.33;13.17;;;;;;;-5.91;100.00;103468.31;5008727;28;20083;-74
2024/01/11 01:59:34;;;;;;;33.97;13.57;;;;;;;-5.88;100.00;103473.66;5006853;28;20041;-74
2024/01/11 02:02:22;;;;;;;37.70;14.27;;;;;;;-5.87;100.00;103470.28;5015357;28;20064;-74
2024/01/11 02:05:09;;;;;;;35.63;13.53;;;;;;;-5.85;100.00;103472.97;5007948;28;20080;-74
2024/01/11 02:07:56;;;;;;;35.10;14.10;;;;;;;-5.85;100.00;103465.22;5019352;28;20049;-74
2024/01/11 02:10:41;;;;;;;36.00;13.87;;;;;;;-5.86;100.00;103466.91;5025243;28;20051;-74
2024/01/11 02:13:28;;;;;;;36.47;13.33;;;;;;;-5.89;100.00;103469.28;5031832;28;20784;-74
2024/01/11 02:16:14;;;;;;;40.40;14.57;;;;;;;-5.91;100.00;103457.97;5042255;28;20441;-74
2024/01/11 02:19:00;;;;;;;32.77;13.57;;;;;;;-5.92;100.00;103451.03;5047053;28;20051;-74
2024/01/11 02:21:46;;;;;;;34.33;14.67;;;;;;;-5.93;100.00;103464.75;5035554;28;20463;-74
2024/01/11 02:24:32;;;;;;;33.13;13.73;;;;;;;-5.95;100.00;103460.28;5042947;28;20056;-74
2024/01/11 02:27:18;;;;;;;42.40;14.57;;;;;;;-5.98;100.00;103453.22;5048646;28;20053;-74
2024/01/11 02:30:04;;;;;;;36.50;13.77;;;;;;;-6.00;100.00;103462.53;5037237;28;20040;-74
2024/01/11 02:32:51;;;;;;;35.73;13.80;;;;;;;-6.00;100.00;103467.69;5039531;28;20055;-74
2024/01/11 02:35:39;;;;;;;36.27;14.07;;;;;;;-6.02;100.00;103469.31;5040112;28;20073;-74
2024/01/11 02:38:24;;;;;;;40.57;14.57;;;;;;;-6.03;100.00;103467.53;5048552;28;20041;-74
2024/01/11 02:41:11;;;;;;;39.20;14.00;;;;;;;-6.06;100.00;103477.66;5049422;28;20127;-74
2024/01/11 02:43:57;;;;;;;33.60;13.60;;;;;;;-6.08;100.00;103477.56;5047638;28;20033;-74
2024/01/11 02:46:43;;;;;;;35.43;12.83;;;;;;;-6.10;100.00;103485.97;5015507;28;20040;-74
2024/01/11 02:49:29;;;;;;;33.77;13.60;;;;;;;-6.12;100.00;103483.28;5036530;28;20053;-74
2024/01/11 02:52:15;;;;;;;36.70;13.93;;;;;;;-6.16;100.00;103489.94;5048431;28;20183;-74
2024/01/11 02:55:01;;;;;;;36.63;13.80;;;;;;;-6.19;100.00;103486.25;5035258;28;20044;-74
2024/01/11 02:57:46;;;;;;;39.77;15.07;;;;;;;-6.21;100.00;103493.00;5015240;28;20061;-74
2024/01/11 03:00:32;;;;;;;32.37;12.53;;;;;;;-6.25;100.00;103481.59;5047528;28;20049;-74
2024/01/11 03:03:18;;;;;;;38.57;13.97;;;;;;;-6.27;100.00;103490.91;5035424;28;20617;-74
2024/01/11 03:06:04;;;;;;;38.13;13.70;;;;;;;-6.27;100.00;103488.31;5048890;28;20483;-74
2024/01/11 03:08:53;;;;;;;43.00;15.13;;;;;;;-6.28;100.00;103491.69;5049311;28;20067;-74
2024/01/11 03:11:38;;;;;;;33.27;13.73;;;;;;;-6.32;100.00;103487.13;5048189;28;20138;-74
2024/01/11 03:14:24;;;;;;;36.60;13.33;;;;;;;-6.31;100.00;103488.91;5034249;28;20049;-74
2024/01/11 03:17:10;;;;;;;34.30;13.67;;;;;;;-6.31;100.00;103483.75;5048208;28;20048;-74
2024/01/11 03:19:56;;;;;;;41.80;14.30;;;;;;;-6.33;100.00;103487.94;5046439;28;20510;-74
2024/01/11 03:22:46;;;;;;;37.37;14.90;;;;;;;-6.34;100.00;103481.88;5037963;28;22014;-74
2024/01/11 03:25:32;;;;;;;38.47;13.83;;;;;;;-6.34;100.00;103483.53;5051746;28;20139;-74
2024/01/11 03:28:18;;;;;;;35.90;14.63;;;;;;;-6.35;100.00;103485.25;5047254;28;20205;-75
2024/01/11 03:31:04;;;;;;;38.63;13.57;;;;;;;-6.36;100.00;103478.31;5045883;28;20052;-75
2024/01/11 03:33:50;;;;;;;39.27;14.90;;;;;;;-6.36;100.00;103485.13;5034762;28;20052;-75
2024/01/11 03:36:36;;;;;;;36.67;14.37;;;;;;;-6.35;100.00;103490.41;5046736;28;20043;-74
2024/01/11 03:39:22;;;;;;;38.20;15.33;;;;;;;-6.35;100.00;103492.06;5047660;28;20084;-74
2024/01/11 03:42:07;;;;;;;37.37;13.40;;;;;;;-6.35;100.00;103492.97;5034453;28;20052;-74
2024/01/11 03:44:53;;;;;;;36.67;14.23;;;;;;;-6.34;100.00;103486.13;5047333;28;20439;-74
2024/01/11 03:47:39;;;;;;;33.43;13.13;;;;;;;-6.34;100.00;103484.44;5044790;28;20106;-74
2024/01/11 03:50:24;;;;;;;41.23;14.90;;;;;;;-6.37;100.00;103486.84;5047033;28;20040;-74
2024/01/11 03:53:10;;;;;;;38.97;14.47;;;;;;;-6.34;100.00;103475.81;5045866;28;20481;-75
2024/01/11 03:55:56;;;;;;;32.50;14.40;;;;;;;-6.35;100.00;103468.88;5045593;28;20045;-74
2024/01/11 03:58:44;;;;;;;36.87;13.27;;;;;;;-6.33;100.00;103475.03;5031739;28;20056;-74
2024/01/11 04:01:33;;;;;;;43.23;14.77;;;;;;;-6.33;100.00;103467.31;5045590;28;20123;-74
2024/01/11 04:04:18;;;;;;;36.47;14.03;;;;;;;-6.32;100.00;103463.94;5020833;28;20045;-74
2024/01/11 04:07:04;;;;;;;39.47;13.87;;;;;;;-6.33;100.00;103472.47;5029184;28;20406;-74
2024/01/11 04:09:50;;;;;;;37.87;13.43;;;;;;;-6.30;100.00;103462.34;5027206;28;20724;-74
2024/01/11 04:12:37;;;;;;;42.23;13.97;;;;;;;-6.28;100.00;103469.38;5020797;28;21965;-74
2024/01/11 04:15:25;;;;;;;39.60;13.37;;;;;;;-6.24;100.00;103472.16;5017766;28;20045;-74
2024/01/11 04:18:11;;;;;;;44.53;15.17;;;;;;;-6.22;100.00;103473.16;5018543;28;20065;-75
2024/01/11 04:20:57;;;;;;;43.87;14.80;;;;;;;-6.23;100.00;103469.69;5015832;28;20591;-74
2024/01/11 04:23:43;;;;;;;36.43;13.37;;;;;;;-6.22;100.00;103474.03;5021762;28;21915;-74
2024/01/11 04:26:28;;;;;;;42.97;14.90;;;;;;;-6.23;100.00;103463.66;5023519;28;20051;-74
2024/01/11 04:29:14;;;;;;;37.73;14.07;;;;;;;-6.23;100.00;103459.38;5027071;28;20488;-74
2024/01/11 04:32:01;;;;;;;36.93;14.17;;;;;;;-6.24;100.00;103457.59;5026627;28;20049;-74
2024/01/11 04:34:47;;;;;;;40.50;13.80;;;;;;;-6.25;100.00;103460.97;5018008;28;20043;-74
2024/01/11 04:37:35;;;;;;;38.47;14.20;;;;;;;-6.25;100.00;103465.22;5023266;28;20628;-74
2024/01/11 04:40:20;;;;;;;38.50;13.70;;;;;;;-6.29;100.00;103477.91;5017553;28;20118;-74
2024/01/11 04:43:08;;;;;;;34.47;12.83;;;;;;;-6.28;100.00;103473.63;5021166;28;20077;-74
2024/01/11 04:45:54;;;;;;;34.70;13.33;;;;;;;-6.30;100.00;103481.28;5021768;28;20484;-74
2024/01/11 04:48:40;;;;;;;44.27;15.77;;;;;;;-6.31;100.00;103465.72;5028023;28;20104;-74
2024/01/11 04:51:26;;;;;;;40.30;14.87;;;;;;;-6.34;100.00;103487.03;4999135;28;20088;-74
2024/01/11 04:54:11;;;;;;;38.03;14.63;;;;;;;-6.36;100.00;103482.56;5024394;28;20053;-74
2024/01/11 04:56:57;;;;;;;44.13;15.07;;;;;;;-6.35;100.00;103492.06;5017452;28;20056;-74
2024/01/11 04:59:43;;;;;;;37.63;14.33;;;;;;;-6.35;100.00;103504.97;5007812;28;20048;-74
2024/01/11 05:02:29;;;;;;;37.73;14.63;;;;;;;-6.37;100.00;103507.47;5036735;28;20049;-74
2024/01/11 05:05:15;;;;;;;32.70;12.83;;;;;;;-6.36;100.00;103511.81;5020084;28;20033;-74
2024/01/11 05:08:01;;;;;;;38.40;13.03;;;;;;;-6.34;100.00;103520.53;5038513;28;20068;-74
2024/01/11 05:10:47;;;;;;;32.10;13.30;;;;;;;-6.30;100.00;103516.50;5032993;28;20166;-74
2024/01/11 05:13:32;;;;;;;39.90;14.30;;;;;;;-6.28;100.00;103531.28;5025660;28;21015;-74
2024/01/11 05:16:19;;;;;;;38.53;13.63;;;;;;;-6.24;100.00;103531.47;5029522;28;20045;-74
2024/01/11 05:19:05;;;;;;;40.90;14.30;;;;;;;-6.21;100.00;103535.16;5025309;28;20595;-74
2024/01/11 05:21:51;;;;;;;39.33;14.43;;;;;;;-6.15;100.00;103533.00;5007567;28;20037;-75
2024/01/11 05:24:36;;;;;;;38.67;14.80;;;;;;;-6.08;100.00;103533.41;5025558;28;20045;-75
2024/01/11 05:27:22;;;;;;;46.47;16.23;;;;;;;-6.01;100.00;103538.16;5023472;28;20055;-75
2024/01/11 05:30:09;;;;;;;39.40;14.97;;;;;;;-5.94;100.00;103535.19;5022798;28;20084;-75
2024/01/11 05:32:55;;;;;;;37.40;13.97;;;;;;;-5.87;100.00;103539.06;5024150;28;20045;-75
2024/01/11 05:35:41;;;;;;;39.47;14.43;;;;;;;-5.81;100.00;103533.41;5038706;28;20582;-74
2024/01/11 05:38:26;;;;;;;48.90;16.20;;;;;;;-5.74;100.00;103518.44;5019923;28;20549;-74
2024/01/11 05:41:12;;;;;;;42.37;15.17;;;;;;;-5.65;100.00;103523.31;5027650;28;21151;-75
2024/01/11 05:43:58;;;;;;;42.40;14.73;;;;;;;-5.60;100.00;103526.19;5031843;28;20234;-75
2024/01/11 05:46:44;;;;;;;44.57;16.30;;;;;;;-5.54;100.00;103520.50;5016032;28;20095;-76
2024/01/11 05:49:29;;;;;;;49.53;16.60;;;;;;;-5.47;100.00;103514.94;5029996;28;20052;-75
2024/01/11 05:52:15;;;;;;;46.37;17.03;;;;;;;-5.40;100.00;103519.72;5030260;28;20053;-75
2024/01/11 05:55:01;;;;;;;45.27;16.10;;;;;;;-5.34;100.00;103524.38;5031295;28;20424;-75
2024/01/11 05:57:47;;;;;;;47.83;16.43;;;;;;;-5.27;100.00;103517.91;5025755;28;20040;-75
2024/01/11 06:00:32;;;;;;;46.20;17.30;;;;;;;-5.22;100.00;103524.28;5008466;28;20059;-74
2024/01/11 06:03:18;;;;;;;47.07;16.30;;;;;;;-5.17;100.00;103528.03;5027547;28;20529;-74
2024/01/11 06:06:05;;;;;;;42.80;16.23;;;;;;;-5.12;100.00;103515.41;5031021;28;20178;-75
2024/01/11 06:08:50;;;;;;;41.93;16.70;;;;;;;-5.06;100.00;103510.63;5032326;28;20140;-75
2024/01/11 06:11:36;;;;;;;48.47;17.90;;;;;;;-5.02;100.00;103501.38;5030668;28;20068;-75
2024/01/11 06:14:22;;;;;;;47.63;18.17;;;;;;;-4.97;100.00;103499.97;5021177;28;20036;-75
2024/01/11 06:17:10;;;;;;;45.53;17.47;;;;;;;-4.92;100.00;103503.72;5026865;28;20069;-74
2024/01/11 06:19:56;;;;;;;42.63;16.03;;;;;;;-4.93;100.00;103499.34;5025933;28;20098;-76
2024/01/11 06:22:42;;;;;;;41.40;16.73;;;;;;;-4.89;100.00;103493.56;5023608;28;20041;-75
2024/01/11 06:25:28;;;;;;;41.60;16.07;;;;;;;-4.87;100.00;103483.31;5021893;28;20150;-75
2024/01/11 06:28:13;;;;;;;48.47;17.60;;;;;;;-4.83;100.00;103493.97;5020958;28;20179;-75
2024/01/11 06:30:59;;;;;;;42.33;16.80;;;;;;;-4.78;100.00;103492.53;5023588;28;20111;-75
2024/01/11 06:33:45;;;;;;;38.63;15.10;;;;;;;-4.75;100.00;103501.28;5024385;28;20103;-74
2024/01/11 06:36:31;;;;;;;47.03;16.57;;;;;;;-4.71;100.00;103495.47;5024397;28;20037;-75
2024/01/11 06:39:16;;;;;;;47.40;17.03;;;;;;;-4.66;100.00;103512.16;5021287;28;20110;-74
2024/01/11 06:42:02;;;;;;;43.00;15.73;;;;;;;-4.61;100.00;103500.41;5030249;28;20049;-75
2024/01/11 06:44:48;;;;;;;48.03;18.60;;;;;;;-4.57;100.00;103497.19;5020918;28;20053;-75
2024/01/11 06:47:34;;;;;;;49.13;17.67;;;;;;;-4.52;100.00;103493.19;5026571;28;20598;-75
2024/01/11 06:50:20;;;;;;;41.63;17.07;;;;;;;-4.47;100.00;103485.72;5022362;28;20056;-75
2024/01/11 06:53:05;;;;;;;45.88;18.58;;;;;;;-4.44;100.00;103480.75;5022208;28;20184;-74
2024/01/11 06:55:52;;;;;;;43.70;16.87;;;;;;;-4.41;100.00;103480.91;5021219;28;20056;-76
2024/01/11 06:58:38;;;;;;;46.50;16.48;;;;;;;-4.37;100.00;103484.56;5020918;28;20036;-75
2024/01/11 07:01:24;;;;;;;42.67;16.75;;;;;;;-4.36;100.00;103476.03;5021812;28;20056;-76
2024/01/11 07:04:09;;;;;;;42.93;16.07;;;;;;;-4.32;100.00;103490.91;5024437;28;20041;-75
2024/01/11 07:06:55;;;;;;;45.20;17.10;;;;;;;-4.28;100.00;103477.38;5025691;28;20052;-75
2024/01/11 07:09:41;;;;;;;49.57;17.87;;;;;;;-4.24;100.00;103476.72;5044431;28;20057;-75
2024/01/11 07:12:27;;;;;;;43.30;16.30;;;;;;;-4.21;100.00;103468.25;5039157;28;20140;-75
2024/01/11 07:15:13;;;;;;;46.25;18.10;;;;;;;-4.18;100.00;103467.53;5028180;28;20051;-75
2024/01/11 07:17:58;;;;;;;44.00;15.97;;;;;;;-4.13;100.00;103460.94;5030919;28;20135;-75
2024/01/11 07:20:44;;;;;;;46.67;16.17;;;;;;;-4.10;100.00;103474.03;5040390;28;20136;-75
2024/01/11 07:23:30;;;;;;;45.40;17.83;;;;;;;-4.07;100.00;103469.06;5040001;28;20063;-75
2024/01/11 07:26:16;;;;;;;48.83;17.50;;;;;;;-4.04;100.00;103471.81;5038667;28;20078;-76
2024/01/11 07:29:02;;;;;;;46.45;16.83;;;;;;;-4.01;100.00;103479.78;5028186;28;20063;-75
2024/01/11 07:31:48;;;;;;;45.35;17.80;;;;;;;-3.97;100.00;103497.25;5040555;28;20112;-75
2024/01/11 07:34:33;;;;;;;49.20;17.27;;;;;;;-3.94;100.00;103506.00;5025160;28;20347;-75
2024/01/11 07:37:20;;;;;;;47.28;17.50;;;;;;;-3.90;100.00;103513.13;5032493;28;20821;-75
2024/01/11 07:40:13;;;;;;;49.23;17.77;;;;;;;-3.85;100.00;103527.25;5040789;28;20107;-74
2024/01/11 07:42:59;;;;;;;43.38;16.63;;;;;;;-3.81;100.00;103516.28;5044599;28;20047;-75
2024/01/11 07:45:44;;;;;;;42.10;17.67;;;;;;;-3.77;100.00;103518.22;5041996;28;20043;-75
2024/01/11 07:48:30;;;;;;;44.90;17.45;;;;;;;-3.73;100.00;103511.50;5027926;28;20056;-75
2024/01/11 07:51:16;;;;;;;42.67;17.65;;;;;;;-3.72;100.00;103509.03;5039997;28;21324;-76
2024/01/11 07:54:02;;;;;;;49.63;17.23;;;;;;;-3.66;100.00;103497.22;5044723;28;20403;-75
2024/01/11 07:56:48;;;;;;;41.28;16.25;;;;;;;-3.62;100.00;103501.75;5047980;28;20048;-75
2024/01/11 07:59:37;;;;;;;46.50;16.88;;;;;;;-3.60;100.00;103497.56;5044627;28;20051;-75
2024/01/11 08:02:23;;;;;;;48.28;17.13;;;;;;;-3.57;100.00;103485.69;5031482;28;20060;-74
2024/01/11 08:05:09;;;;;;;41.97;16.75;;;;;;;-3.53;100.00;103483.25;5044505;28;20130;-75
2024/01/11 08:07:55;;;;;;;44.03;16.98;;;;;;;-3.49;100.00;103485.22;5026356;28;20044;-75
2024/01/11 08:10:41;;;;;;;45.40;17.60;;;;;;;-3.45;100.00;103490.66;5045702;28;20048;-76
2024/01/11 08:13:27;;;;;;;46.42;16.98;;;;;;;-3.42;100.00;103482.16;5043029;28;20170;-76
2024/01/11 08:16:17;;;;;;;37.90;16.00;;;;;;;-3.37;100.00;103490.19;5019230;28;20299;-75
2024/01/11 08:19:05;;;;;;;48.63;17.85;;;;;;;-3.34;100.00;103495.53;5044720;28;20059;-75
2024/01/11 08:21:51;;;;;;;39.60;16.33;;;;;;;-3.31;100.00;103498.31;5035038;28;20044;-75
2024/01/11 08:24:38;;;;;;;41.65;16.08;;;;;;;-3.28;100.00;103495.84;5044900;28;20633;-75
2024/01/11 08:27:23;;;;;;;43.90;17.73;;;;;;;-3.26;100.00;103496.84;5046519;28;20052;-75
2024/01/11 08:30:09;;;;;;;39.40;17.27;;;;;;;-3.21;100.00;103508.34;5047812;28;20233;-75
2024/01/11 08:32:55;;;;;;;42.28;16.75;;;;;;;-3.17;100.00;103502.53;5018963;28;20123;-76
2024/01/11 08:35:41;;;;;;;46.30;17.95;;;;;;;-3.15;100.00;103495.72;5025134;28;20056;-76
2024/01/11 08:38:29;;;;;;;42.45;17.20;;;;;;;-3.10;100.00;103502.88;5030413;28;20049;-75
2024/01/11 08:41:14;;;;;;;41.92;16.77;;;;;;;-3.07;100.00;103506.50;5046876;28;20110;-76
2024/01/11 08:44:05;;;;;;;40.70;16.30;;;;;;;-3.03;100.00;103504.97;5036927;28;20059;-76
2024/01/11 08:46:51;;;;;;;42.53;16.75;;;;;;;-2.98;100.00;103511.31;5035238;28;20146;-75
2024/01/11 08:49:39;;;;;;;44.88;16.58;;;;;;;-2.95;100.00;103501.09;5028546;28;20079;-76
2024/01/11 08:52:24;;;;;;;39.58;16.90;;;;;;;-2.91;100.00;103508.25;5014743;28;20033;-76
2024/01/11 08:55:12;;;;;;;42.33;17.50;;;;;;;-2.87;100.00;103502.38;5034244;28;20510;-75
2024/01/11 08:57:58;;;;;;;40.67;16.45;;;;;;;-2.81;100.00;103499.25;5024652;28;20304;-76
2024/01/11 09:00:44;;;;;;;41.40;15.52;;;;;;;-2.76;100.00;103483.91;5038420;28;20415;-76
2024/01/11 09:03:29;;;;;;;44.33;17.48;;;;;;;-2.71;100.00;103485.06;5039628;28;20137;-76
2024/01/11 09:06:15;;;;;;;41.67;16.65;;;;;;;-2.66;100.00;103482.72;5025186;28;20072;-76
2024/01/11 09:09:01;;;;;;;36.72;16.05;;;;;;;-2.60;100.00;103490.81;5020532;28;20206;-76
2024/01/11 09:11:47;;;;;;;36.33;14.90;;;;;;;-2.56;100.00;103484.94;5033759;28;21006;-76
2024/01/11 09:14:32;;;;;;;40.55;15.93;;;;;;;-2.49;100.00;103486.16;5030374;28;20183;-76
2024/01/11 09:17:18;;;;;;;32.95;14.70;;;;;;;-2.42;100.00;103472.69;5044225;28;20097;-75
2024/01/11 09:20:05;;;;;;;37.13;15.73;;;;;;;-2.37;100.00;103471.22;5044033;28;20056;-76
2024/01/11 09:22:50;;;;;;;35.03;15.27;;;;;;;-2.33;100.00;103473.16;5042092;28;20253;-76
2024/01/11 09:25:36;;;;;;;34.65;14.95;;;;;;;-2.24;100.00;103488.31;5044685;28;20041;-76
2024/01/11 09:28:22;;;;;;;36.30;14.65;;;;;;;-2.16;100.00;103485.19;5033834;28;20044;-76
2024/01/11 09:31:08;;;;;;;35.83;15.25;;;;;;;-2.11;100.00;103489.81;5046801;28;20407;-75
2024/01/11 09:33:53;;;;;;;31.80;13.60;;;;;;;-2.04;100.00;103506.59;5030112;28;20150;-76
2024/01/11 09:36:39;;;;;;;40.58;15.07;;;;;;;-1.96;100.00;103517.38;5031099;28;20043;-75
2024/01/11 09:39:25;;;;;;;41.22;17.50;;;;;;;-1.91;100.00;103532.34;5046049;28;20056;-75
2024/01/11 09:42:12;;;;;;;34.72;14.65;;;;;;;-1.84;100.00;103519.69;5030757;28;20064;-75
2024/01/11 09:44:58;;;;;;;34.13;14.30;;;;;;;-1.76;100.00;103527.84;5044796;28;20048;-75
2024/01/11 09:47:47;;;;;;;32.30;14.60;;;;;;;-1.71;100.00;103511.66;5048672;28;20049;-75
2024/01/11 09:50:33;;;;;;;34.72;14.02;;;;;;;-1.63;100.00;103517.25;5038564;28;20045;-76
2024/01/11 09:53:20;;;;;;;34.58;14.38;;;;;;;-1.57;100.00;103522.72;5047755;28;20041;-76
2024/01/11 09:56:10;;;;;;;33.65;14.52;;;;;;;-1.51;100.00;103511.75;5050688;28;20029;-75
2024/01/11 09:58:56;;;;;;;29.20;12.48;;;;;;;-1.45;100.00;103511.13;5033771;28;20052;-75
2024/01/11 10:01:41;;;;;;;31.50;14.23;;;;;;;-1.40;100.00;103525.25;5050818;28;20055;-76
2024/01/11 10:04:28;;;;;;;35.55;14.65;;;;;;;-1.33;100.00;103524.72;5052291;28;20041;-76
2024/01/11 10:07:18;;;;;;;32.70;13.98;;;;;;;-1.28;100.00;103528.44;5052596;28;20053;-76
2024/01/11 10:10:05;;;;;;;31.77;13.15;;;;;;;-1.23;100.00;103524.34;5034295;28;20041;-76
2024/01/11 10:12:50;;;;;;;41.38;16.52;;;;;;;-1.17;100.00;103523.72;5023034;28;20942;-76
2024/01/11 10:15:36;;;;;;;31.45;13.93;;;;;;;-1.14;100.00;103523.88;5049444;28;20075;-76
2024/01/11 10:18:23;;;;;;;33.22;14.60;;;;;;;-1.09;100.00;103537.09;5031304;28;20037;-75
2024/01/11 10:21:09;;;;;;;31.00;13.38;;;;;;;-1.06;100.00;103528.53;5049165;28;20051;-76
2024/01/11 10:23:57;;;;;;;36.33;15.82;;;;;;;-1.01;100.00;103529.63;5049144;28;20692;-75
2024/01/11 10:26:43;;;;;;;32.15;14.10;;;;;;;-0.97;100.00;103526.38;5049211;28;20041;-75
2024/01/11 10:29:33;;;;;;;35.00;13.77;;;;;;;-0.92;100.00;103521.38;5049352;28;20072;-76
2024/01/11 10:32:18;;;;;;;32.97;13.32;;;;;;;-0.88;100.00;103525.91;5051074;28;20045;-76
2024/01/11 10:35:05;;;;;;;29.42;12.63;;;;;;;-0.84;100.00;103507.00;5052266;28;20044;-76
2024/01/11 10:37:53;;;;;;;27.13;12.32;;;;;;;-0.82;100.00;103502.75;5039204;28;20083;-75
2024/01/11 10:40:40;;;;;;;32.88;12.88;;;;;;;-0.77;100.00;103510.78;5038829;28;20541;-75
2024/01/11 10:43:27;;;;;;;27.55;13.32;;;;;;;-0.72;100.00;103509.25;5038712;28;21898;-75
2024/01/11 10:46:14;;;;;;;32.08;13.98;;;;;;;-0.69;100.00;103504.19;5042734;28;20044;-76
2024/01/11 10:49:04;;;;;;;32.65;15.75;;;;;;;-0.63;100.00;103506.16;5026184;28;20803;-75
2024/01/11 10:51:58;;;;;;;34.05;15.23;;;;;;;-0.59;100.00;103508.97;5045125;28;20052;-76
2024/01/11 10:54:44;;;;;;;29.63;13.23;;;;;;;-0.54;100.00;103506.59;5049380;28;20039;-75
2024/01/11 10:57:32;;;;;;;30.67;13.48;;;;;;;-0.53;100.00;103500.56;5035358;28;20045;-75
2024/01/11 11:00:18;;;;;;;26.98;12.55;;;;;;;-0.48;100.00;103499.03;5039929;28;20056;-75
2024/01/11 11:03:06;;;;;;;32.50;13.23;;;;;;;-0.44;100.00;103494.88;5048112;28;20067;-76
2024/01/11 11:05:53;;;;;;;28.50;13.60;;;;;;;-0.40;100.00;103485.47;5052223;28;20049;-75
2024/01/11 11:08:39;;;;;;;34.22;15.27;;;;;;;-0.38;100.00;103487.28;5026258;28;22104;-75
2024/01/11 11:11:25;;;;;;;30.63;13.10;;;;;;;-0.33;100.00;103484.91;5048078;28;20748;-73
2024/01/11 11:14:14;;;;;;;34.85;14.20;;;;;;;-0.31;100.00;103473.75;5048917;28;20041;-76
2024/01/11 11:17:04;;;;;;;32.05;13.80;;;;;;;-0.28;100.00;103472.94;5039557;28;20048;-76
2024/01/11 11:19:51;;;;;;;24.95;12.52;;;;;;;-0.25;100.00;103473.09;5040234;28;20044;-75
2024/01/11 11:22:36;;;;;;;30.17;12.10;;;;;;;-0.21;100.00;103468.91;5033836;28;20032;-76
2024/01/11 11:25:25;;;;;;;28.85;13.05;;;;;;;-0.18;100.00;103456.00;5050054;28;20078;-76
2024/01/11 11:28:13;;;;;;;31.13;13.30;;;;;;;-0.15;100.00;103459.63;5039022;28;20036;-76
2024/01/11 11:31:00;;;;;;;27.70;12.55;;;;;;;-0.13;100.00;103462.28;5035361;28;20041;-73
2024/01/11 11:33:48;;;;;;;29.13;13.10;;;;;;;-0.09;100.00;103463.31;5036996;28;20047;-73
2024/01/11 11:36:35;;;;;;;27.05;12.13;;;;;;;-0.07;100.00;103461.66;5036711;28;20126;-72
2024/01/11 11:39:21;;;;;;;29.23;13.10;;;;;;;-0.04;100.00;103474.81;5049684;28;20048;-73
2024/01/11 11:42:07;;;;;;;24.33;11.07;;;;;;;-0.02;100.00;103460.13;5049407;28;20040;-73
2024/01/11 11:44:53;;;;;;;25.55;11.65;;;;;;;0.02;100.00;103454.22;5048586;28;20037;-73
2024/01/11 11:47:38;;;;;;;27.00;11.75;;;;;;;0.07;100.00;103457.91;5034079;28;20050;-73
2024/01/11 11:50:24;;;;;;;22.48;10.48;;;;;;;0.12;100.00;103450.28;5030069;28;20056;-73
2024/01/11 11:53:11;;;;;;;20.10;10.20;;;;;;;0.16;100.00;103435.66;5045207;28;20109;-73
2024/01/11 11:55:56;;;;;;;21.65;10.38;;;;;;;0.22;100.00;103435.91;5038436;28;20037;-73
2024/01/11 11:58:43;;;;;;;20.73;10.48;;;;;;;0.26;100.00;103429.97;5038074;28;20087;-74
2024/01/11 12:01:34;;;;;;;28.40;11.40;;;;;;;0.29;100.00;103427.50;5049142;28;20143;-74
2024/01/11 12:04:21;;;;;;;24.10;10.57;;;;;;;0.33;100.00;103429.38;5047268;28;20051;-73
2024/01/11 12:07:07;;;;;;;19.73;9.55;;;;;;;0.37;100.00;103423.47;5047861;28;20053;-73
2024/01/11 12:09:53;;;;;;;16.50;8.93;;;;;;;0.40;100.00;103417.47;5046991;28;20470;-73
2024/01/11 12:12:39;;;;;;;15.95;8.13;;;;;;;0.45;100.00;103420.25;5048852;28;20197;-73
2024/01/11 12:15:27;;;;;;;18.80;8.93;;;;;;;0.49;100.00;103428.25;5044652;28;20071;-73
2024/01/11 12:18:13;;;;;;;20.83;9.00;;;;;;;0.53;100.00;103421.44;5034826;28;20174;-73
2024/01/11 12:20:59;;;;;;;18.38;9.35;;;;;;;0.57;100.00;103415.50;5048455;28;20055;-74
2024/01/11 12:23:48;;;;;;;22.10;9.30;;;;;;;0.59;100.00;103412.97;5049027;28;20045;-73
2024/01/11 12:26:34;;;;;;;17.77;9.15;;;;;;;0.59;100.00;103411.22;5047894;28;20056;-74